createdAt,value
2022-08-09T00:00:04.202Z,58.93
2022-08-09T00:01:10.712Z,59.47
2022-08-09T00:02:18.969Z,59.57
2022-08-09T00:04:03.586Z,59.53
2022-08-09T00:04:43.705Z,59.17
2022-08-09T00:06:19.549Z,59.16
2022-08-09T00:07:25.527Z,59.07
2022-08-09T00:08:33.099Z,59.58
2022-08-09T00:09:35.756Z,59.38
2022-08-09T00:10:40.632Z,59.43
2022-08-09T00:12:03.220Z,59.60
2022-08-09T00:13:06.609Z,59.92
2022-08-09T00:14:21.754Z,60.05
2022-08-09T00:15:58.164Z,60.00
2022-08-09T00:16:53.078Z,59.50
2022-08-09T00:18:05.138Z,59.81
2022-08-09T00:19:13.545Z,59.99
2022-08-09T00:20:21.130Z,59.68
2022-08-09T00:21:24.441Z,60.04
2022-08-09T00:22:35.136Z,59.68
2022-08-09T00:23:56.395Z,59.85
2022-08-09T00:25:08.431Z,59.77
2022-08-09T00:26:14.491Z,60.31
2022-08-09T00:27:17.193Z,59.81
2022-08-09T00:28:19.747Z,60.13
2022-08-09T00:30:09.902Z,60.42
2022-08-09T00:30:46.591Z,60.31
2022-08-09T00:31:58.416Z,60.16
2022-08-09T00:33:01.710Z,59.87
2022-08-09T00:34:04.488Z,60.21
2022-08-09T00:35:08.290Z,60.55
2022-08-09T00:36:09.955Z,60.33
2022-08-09T00:37:12.525Z,60.57
2022-08-09T00:38:15.306Z,60.06
2022-08-09T00:40:09.656Z,60.03
2022-08-09T00:40:40.035Z,60.31
2022-08-09T00:44:13.883Z,60.13
2022-08-09T00:44:14.247Z,60.22
2022-08-09T00:44:41.115Z,60.53
2022-08-09T00:45:50.593Z,60.38
2022-08-09T00:47:01.776Z,60.22
2022-08-09T00:48:07.539Z,60.27
2022-08-09T00:49:10.184Z,60.56
2022-08-09T00:50:14.228Z,60.30
2022-08-09T00:51:18.795Z,60.52
2022-08-09T00:52:22.813Z,60.25
2022-08-09T00:53:32.736Z,60.72
2022-08-09T00:54:37.936Z,60.52
2022-08-09T00:56:05.668Z,60.17
2022-08-09T00:57:08.768Z,60.50
2022-08-09T00:58:14.781Z,60.18
2022-08-09T00:59:40.659Z,60.77
2022-08-09T01:00:44.671Z,60.71
2022-08-09T01:01:51.496Z,60.31
2022-08-09T01:03:00.662Z,60.76
2022-08-09T01:04:10.000Z,60.66
2022-08-09T01:05:22.416Z,61.00
2022-08-09T01:06:55.598Z,60.43
2022-08-09T01:08:04.775Z,60.87
2022-08-09T01:09:19.173Z,60.57
2022-08-09T01:10:39.007Z,61.04
2022-08-09T01:11:56.559Z,60.89
2022-08-09T01:13:04.723Z,60.75
2022-08-09T01:14:21.829Z,60.95
2022-08-09T01:15:31.242Z,60.15
2022-08-09T01:16:38.864Z,61.20
2022-08-09T01:17:46.952Z,60.63
2022-08-09T01:19:02.627Z,61.21
2022-08-09T01:20:10.632Z,61.03
2022-08-09T01:21:24.860Z,60.79
2022-08-09T01:23:03.044Z,61.01
2022-08-09T01:24:15.068Z,60.77
2022-08-09T01:25:24.799Z,61.30
2022-08-09T01:26:46.315Z,60.90
2022-08-09T01:27:57.905Z,61.08
2022-08-09T01:29:02.652Z,61.19
2022-08-09T01:30:08.196Z,61.46
2022-08-09T01:31:23.386Z,61.48
2022-08-09T01:32:45.537Z,61.06
2022-08-09T01:33:50.148Z,61.38
2022-08-09T01:34:55.436Z,61.16
2022-08-09T01:36:02.555Z,61.46
2022-08-09T01:37:09.782Z,61.26
2022-08-09T01:38:18.522Z,61.59
2022-08-09T01:39:23.625Z,61.72
2022-08-09T01:40:29.189Z,61.38
2022-08-09T01:41:35.650Z,61.60
2022-08-09T01:42:40.901Z,61.92
2022-08-09T01:43:52.759Z,61.81
2022-08-09T01:44:55.607Z,61.47
2022-08-09T01:45:58.400Z,61.73
2022-08-09T01:47:02.254Z,61.84
2022-08-09T01:48:06.455Z,61.93
2022-08-09T01:49:12.791Z,61.81
2022-08-09T01:50:18.078Z,61.59
2022-08-09T01:51:33.144Z,61.77
2022-08-09T01:52:36.907Z,61.79
2022-08-09T01:53:44.387Z,62.01
2022-08-09T01:54:57.232Z,62.02
2022-08-09T01:56:00.276Z,61.97
2022-08-09T01:57:08.392Z,62.16
2022-08-09T01:58:13.658Z,62.31
2022-08-09T01:59:19.565Z,61.98
2022-08-09T02:00:35.394Z,62.58
2022-08-09T02:02:00.081Z,62.42
2022-08-09T02:03:06.517Z,62.09
2022-08-09T02:04:10.560Z,62.19
2022-08-09T02:05:16.513Z,62.64
2022-08-09T02:06:45.535Z,62.32
2022-08-09T02:08:38.627Z,62.83
2022-08-09T02:09:42.272Z,62.52
2022-08-09T02:10:50.952Z,62.44
2022-08-09T02:11:54.449Z,62.94
2022-08-09T02:13:04.070Z,62.65
2022-08-09T02:14:10.215Z,62.59
2022-08-09T02:15:21.168Z,62.62
2022-08-09T02:16:33.776Z,62.80
2022-08-09T02:18:00.176Z,63.12
2022-08-09T02:19:01.834Z,63.14
2022-08-09T02:20:05.607Z,63.06
2022-08-09T02:21:11.105Z,63.31
2022-08-09T02:22:35.735Z,62.94
2022-08-09T02:23:43.170Z,62.95
2022-08-09T02:24:51.943Z,62.94
2022-08-09T02:25:58.011Z,62.96
2022-08-09T02:27:06.577Z,63.55
2022-08-09T02:28:13.226Z,63.25
2022-08-09T02:29:25.414Z,63.23
2022-08-09T02:30:31.323Z,63.27
2022-08-09T02:31:38.043Z,63.34
2022-08-09T02:32:45.440Z,63.46
2022-08-09T02:34:07.298Z,63.42
2022-08-09T02:35:25.728Z,63.32
2022-08-09T02:36:46.750Z,63.37
2022-08-09T02:38:00.253Z,63.53
2022-08-09T02:39:07.134Z,63.87
2022-08-09T02:40:27.110Z,63.97
2022-08-09T02:41:38.457Z,63.98
2022-08-09T02:42:43.950Z,63.57
2022-08-09T02:43:54.737Z,63.61
2022-08-09T02:45:03.802Z,63.64
2022-08-09T02:46:11.858Z,63.81
2022-08-09T02:47:16.111Z,63.81
2022-08-09T02:48:30.739Z,63.89
2022-08-09T02:49:38.902Z,63.79
2022-08-09T02:50:54.391Z,64.04
2022-08-09T02:52:00.035Z,64.03
2022-08-09T02:53:25.724Z,64.09
2022-08-09T02:54:30.363Z,64.16
2022-08-09T02:55:57.649Z,64.13
2022-08-09T02:57:13.705Z,64.35
2022-08-09T02:58:35.764Z,64.04
2022-08-09T02:59:40.034Z,64.05
2022-08-09T03:01:07.786Z,64.33
2022-08-09T03:02:16.833Z,64.27
2022-08-09T03:03:37.323Z,64.35
2022-08-09T03:04:45.354Z,64.20
2022-08-09T03:05:49.381Z,64.65
2022-08-09T03:07:12.373Z,64.63
2022-08-09T03:08:18.128Z,64.24
2022-08-09T03:09:22.236Z,64.28
2022-08-09T03:10:26.813Z,64.88
2022-08-09T03:12:06.183Z,64.87
2022-08-09T03:12:57.407Z,64.94
2022-08-09T03:14:02.042Z,64.79
2022-08-09T03:15:05.877Z,64.75
2022-08-09T03:16:09.636Z,64.75
2022-08-09T03:17:16.348Z,64.84
2022-08-09T03:18:31.251Z,64.88
2022-08-09T03:19:59.653Z,64.82
2022-08-09T03:20:58.425Z,64.99
2022-08-09T03:22:03.263Z,64.91
2022-08-09T03:23:14.969Z,64.83
2022-08-09T03:24:31.725Z,64.97
2022-08-09T03:25:59.144Z,65.13
2022-08-09T03:27:09.164Z,65.04
2022-08-09T03:28:14.382Z,65.21
2022-08-09T03:29:22.674Z,65.14
2022-08-09T03:30:33.378Z,65.02
2022-08-09T03:31:42.768Z,65.28
2022-08-09T03:33:05.761Z,65.22
2022-08-09T03:34:19.955Z,65.20
2022-08-09T03:36:11.277Z,65.28
2022-08-09T03:36:58.188Z,65.24
2022-08-09T03:38:02.064Z,65.34
2022-08-09T03:39:05.490Z,65.26
2022-08-09T03:40:09.189Z,65.27
2022-08-09T03:41:18.221Z,65.27
2022-08-09T03:42:20.360Z,65.38
2022-08-09T03:43:33.119Z,65.80
2022-08-09T03:44:34.801Z,65.56
2022-08-09T03:46:05.126Z,65.71
2022-08-09T03:47:03.043Z,65.71
2022-08-09T03:48:06.781Z,65.83
2022-08-09T03:49:10.561Z,65.86
2022-08-09T03:50:14.154Z,66.01
2022-08-09T03:51:56.961Z,65.92
2022-08-09T03:52:46.466Z,65.68
2022-08-09T03:53:49.739Z,66.04
2022-08-09T03:54:53.887Z,66.13
2022-08-09T03:55:58.392Z,65.83
2022-08-09T03:57:18.507Z,66.12
2022-08-09T03:58:22.148Z,66.18
2022-08-09T03:59:42.598Z,65.86
2022-08-09T04:00:48.305Z,66.28
2022-08-09T04:01:50.717Z,66.16
2022-08-09T04:02:57.362Z,66.28
2022-08-09T04:04:04.746Z,66.15
2022-08-09T04:05:26.599Z,66.11
2022-08-09T04:06:29.568Z,66.34
2022-08-09T04:07:47.084Z,66.22
2022-08-09T04:08:54.897Z,66.31
2022-08-09T04:09:56.567Z,66.42
2022-08-09T04:11:01.491Z,66.53
2022-08-09T04:12:30.430Z,66.55
2022-08-09T04:13:45.123Z,66.43
2022-08-09T04:15:00.636Z,66.62
2022-08-09T04:16:19.509Z,66.75
2022-08-09T04:17:22.666Z,66.69
2022-08-09T04:18:26.613Z,66.92
2022-08-09T04:19:42.717Z,66.75
2022-08-09T04:20:53.483Z,66.88
2022-08-09T04:21:55.129Z,67.09
2022-08-09T04:23:00.327Z,66.87
2022-08-09T04:24:04.421Z,67.13
2022-08-09T04:25:09.260Z,67.08
2022-08-09T04:26:11.290Z,67.23
2022-08-09T04:27:13.918Z,67.25
2022-08-09T04:28:16.348Z,67.11
2022-08-09T04:29:36.113Z,67.20
2022-08-09T04:30:44.757Z,67.21
2022-08-09T04:31:47.814Z,67.20
2022-08-09T04:32:51.380Z,67.54
2022-08-09T04:33:57.131Z,67.46
2022-08-09T04:35:01.535Z,67.34
2022-08-09T04:36:04.787Z,67.39
2022-08-09T04:37:09.011Z,67.28
2022-08-09T04:38:11.645Z,67.56
2022-08-09T04:39:13.375Z,67.51
2022-08-09T04:40:19.174Z,67.60
2022-08-09T04:41:23.629Z,67.36
2022-08-09T04:42:29.748Z,67.32
2022-08-09T04:43:33.643Z,67.53
2022-08-09T04:44:38.453Z,67.34
2022-08-09T04:45:53.053Z,67.55
2022-08-09T04:47:04.380Z,67.39
2022-08-09T04:48:10.524Z,67.56
2022-08-09T04:49:14.900Z,67.50
2022-08-09T04:50:16.812Z,67.67
2022-08-09T04:51:22.366Z,67.44
2022-08-09T04:52:26.425Z,67.56
2022-08-09T04:53:31.524Z,67.57
2022-08-09T04:54:33.452Z,67.50
2022-08-09T04:55:43.601Z,67.51
2022-08-09T04:56:59.084Z,67.63
2022-08-09T04:58:09.570Z,67.76
2022-08-09T04:59:15.322Z,67.70
2022-08-09T05:00:18.508Z,68.04
2022-08-09T05:01:21.108Z,67.64
2022-08-09T05:02:27.442Z,67.99
2022-08-09T05:03:43.071Z,67.77
2022-08-09T05:04:47.388Z,67.80
2022-08-09T05:05:51.928Z,68.10
2022-08-09T05:06:54.414Z,67.77
2022-08-09T05:07:59.102Z,67.98
2022-08-09T05:09:01.264Z,67.60
2022-08-09T05:10:04.442Z,67.88
2022-08-09T05:11:07.715Z,67.69
2022-08-09T05:12:11.111Z,68.10
2022-08-09T05:13:14.688Z,67.82
2022-08-09T05:14:17.211Z,67.89
2022-08-09T05:15:24.612Z,67.77
2022-08-09T05:16:43.802Z,67.90
2022-08-09T05:18:55.057Z,67.90
2022-08-09T05:19:25.800Z,67.76
2022-08-09T05:20:29.958Z,68.10
2022-08-09T05:21:36.384Z,68.04
2022-08-09T05:23:57.134Z,68.02
2022-08-09T05:24:02.672Z,67.68
2022-08-09T05:25:06.666Z,67.90
2022-08-09T05:26:11.693Z,68.16
2022-08-09T05:27:28.297Z,67.96
2022-08-09T05:28:33.277Z,67.79
2022-08-09T05:29:36.234Z,68.12
2022-08-09T05:30:39.021Z,67.89
2022-08-09T05:31:57.065Z,67.69
2022-08-09T05:33:01.972Z,68.20
2022-08-09T05:34:03.725Z,67.97
2022-08-09T05:35:08.034Z,67.94
2022-08-09T05:36:13.292Z,68.12
2022-08-09T05:37:18.152Z,67.83
2022-08-09T05:38:21.621Z,67.78
2022-08-09T05:39:29.640Z,67.87
2022-08-09T05:40:38.453Z,67.83
2022-08-09T05:41:40.327Z,67.84
2022-08-09T05:42:43.112Z,67.46
2022-08-09T05:43:48.939Z,67.89
2022-08-09T05:44:53.898Z,67.65
2022-08-09T05:45:57.781Z,67.41
2022-08-09T05:47:00.623Z,67.62
2022-08-09T05:48:02.248Z,67.45
2022-08-09T05:49:07.466Z,67.34
2022-08-09T05:50:44.057Z,67.35
2022-08-09T05:51:51.426Z,67.02
2022-08-09T05:52:55.033Z,67.08
2022-08-09T05:53:57.967Z,66.89
2022-08-09T05:55:03.258Z,66.69
2022-08-09T05:56:09.209Z,66.03
2022-08-09T05:57:19.217Z,65.85
2022-08-09T05:58:24.606Z,65.65
2022-08-09T05:59:26.227Z,65.69
2022-08-09T06:00:30.496Z,65.52
2022-08-09T06:01:42.727Z,65.45
2022-08-09T06:02:46.866Z,65.19
2022-08-09T06:03:54.551Z,64.49
2022-08-09T06:05:01.292Z,64.30
2022-08-09T06:06:05.814Z,64.16
2022-08-09T06:07:10.467Z,64.45
2022-08-09T06:08:24.997Z,64.38
2022-08-09T06:09:54.468Z,63.64
2022-08-09T06:10:49.849Z,63.99
2022-08-09T06:11:57.626Z,63.65
2022-08-09T06:13:12.377Z,63.20
2022-08-09T06:14:21.777Z,63.25
2022-08-09T06:15:23.719Z,62.93
2022-08-09T06:16:29.544Z,63.08
2022-08-09T06:17:39.106Z,62.57
2022-08-09T06:18:42.798Z,62.55
2022-08-09T06:19:45.436Z,62.48
2022-08-09T06:20:49.881Z,62.14
2022-08-09T06:21:58.361Z,61.93
2022-08-09T06:23:04.159Z,62.25
2022-08-09T06:24:06.782Z,61.58
2022-08-09T06:25:12.339Z,61.76
2022-08-09T06:26:21.044Z,61.33
2022-08-09T06:27:24.647Z,61.23
2022-08-09T06:28:44.411Z,61.49
2022-08-09T06:29:58.813Z,61.09
2022-08-09T06:31:10.710Z,61.24
2022-08-09T06:32:58.853Z,60.82
2022-08-09T06:33:41.582Z,60.63
2022-08-09T06:34:45.563Z,60.59
2022-08-09T06:35:57.701Z,60.65
2022-08-09T06:37:00.860Z,60.44
2022-08-09T06:38:06.238Z,60.65
2022-08-09T06:39:11.543Z,60.57
2022-08-09T06:40:21.886Z,60.20
2022-08-09T06:42:07.538Z,60.14
2022-08-09T06:42:48.622Z,60.22
2022-08-09T06:43:50.631Z,59.92
2022-08-09T06:44:57.273Z,59.98
2022-08-09T06:46:08.100Z,59.57
2022-08-09T06:47:13.594Z,59.40
2022-08-09T06:48:16.828Z,59.39
2022-08-09T06:50:11.935Z,59.22
2022-08-09T06:50:55.924Z,59.58
2022-08-09T06:51:57.488Z,59.29
2022-08-09T06:53:01.377Z,58.91
2022-08-09T06:54:04.451Z,59.00
2022-08-09T06:55:12.949Z,58.60
2022-08-09T06:56:15.651Z,58.67
2022-08-09T06:57:17.262Z,58.94
2022-08-09T07:00:46.882Z,58.82
2022-08-09T07:00:51.082Z,58.65
2022-08-09T07:01:13.110Z,58.76
2022-08-09T07:02:16.685Z,58.39
2022-08-09T07:03:19.499Z,58.62
2022-08-09T07:04:30.834Z,58.26
2022-08-09T07:05:58.213Z,58.36
2022-08-09T07:07:00.443Z,58.44
2022-08-09T07:08:02.553Z,58.10
2022-08-09T07:09:07.669Z,58.16
2022-08-09T07:10:32.155Z,58.40
2022-08-09T07:11:51.987Z,58.40
2022-08-09T07:12:57.614Z,58.33
2022-08-09T07:14:05.277Z,58.44
2022-08-09T07:16:38.932Z,58.44
2022-08-09T07:16:42.476Z,58.74
2022-08-09T07:17:52.810Z,58.75
2022-08-09T07:18:59.171Z,58.77
2022-08-09T07:20:05.555Z,58.85
2022-08-09T07:21:10.801Z,58.79
2022-08-09T07:22:13.968Z,58.66
2022-08-09T07:23:18.736Z,58.65
2022-08-09T07:24:31.544Z,58.95
2022-08-09T07:25:38.860Z,59.02
2022-08-09T07:26:45.360Z,58.82
2022-08-09T07:27:53.483Z,58.83
2022-08-09T07:29:08.526Z,58.57
2022-08-09T07:30:14.653Z,58.44
2022-08-09T07:31:17.724Z,58.67
2022-08-09T07:32:32.474Z,58.17
2022-08-09T07:33:53.248Z,58.35
2022-08-09T07:34:57.857Z,58.23
2022-08-09T07:36:00.560Z,58.09
2022-08-09T07:37:03.633Z,58.22
2022-08-09T07:38:06.393Z,58.25
2022-08-09T07:39:11.921Z,58.34
2022-08-09T07:40:26.800Z,57.93
2022-08-09T07:41:32.994Z,57.86
2022-08-09T07:42:54.363Z,58.22
2022-08-09T07:43:57.299Z,58.07
2022-08-09T07:45:02.521Z,58.11
2022-08-09T07:46:11.579Z,58.28
2022-08-09T07:47:19.608Z,57.86
2022-08-09T07:48:30.422Z,58.07
2022-08-09T07:49:32.527Z,58.03
2022-08-09T07:50:40.455Z,57.63
2022-08-09T07:52:04.589Z,57.58
2022-08-09T07:53:05.864Z,57.71
2022-08-09T07:54:08.935Z,57.65
2022-08-09T07:55:11.837Z,57.54
2022-08-09T07:56:26.548Z,57.58
2022-08-09T07:57:35.666Z,57.29
2022-08-09T07:58:37.792Z,57.37
2022-08-09T07:59:46.144Z,57.27
2022-08-09T08:00:58.897Z,57.08
2022-08-09T08:02:09.548Z,57.25
2022-08-09T08:03:12.466Z,56.98
2022-08-09T08:04:14.108Z,56.85
2022-08-09T08:05:19.529Z,56.74
2022-08-09T08:06:21.490Z,56.87
2022-08-09T08:08:43.723Z,56.71
2022-08-09T08:09:03.682Z,56.67
2022-08-09T08:10:11.001Z,56.41
2022-08-09T08:12:09.403Z,56.53
2022-08-09T08:12:42.470Z,56.62
2022-08-09T08:13:57.355Z,56.54
2022-08-09T08:15:00.725Z,56.49
2022-08-09T08:16:03.847Z,56.64
2022-08-09T08:17:08.654Z,56.47
2022-08-09T08:18:11.799Z,56.49
2022-08-09T08:19:17.378Z,55.87
2022-08-09T08:20:29.382Z,55.84
2022-08-09T08:21:33.293Z,55.95
2022-08-09T08:22:34.965Z,55.85
2022-08-09T08:23:40.890Z,55.80
2022-08-09T08:24:48.646Z,55.54
2022-08-09T08:25:54.315Z,55.65
2022-08-09T08:27:16.923Z,55.47
2022-08-09T08:28:25.539Z,55.34
2022-08-09T08:29:39.664Z,55.31
2022-08-09T08:30:51.595Z,55.10
2022-08-09T08:32:03.497Z,54.80
2022-08-09T08:33:11.972Z,54.73
2022-08-09T08:34:25.339Z,54.99
2022-08-09T08:35:37.120Z,54.62
2022-08-09T08:36:50.854Z,54.52
2022-08-09T08:37:59.425Z,54.43
2022-08-09T08:39:02.694Z,54.38
2022-08-09T08:40:06.905Z,54.36
2022-08-09T08:41:10.882Z,54.19
2022-08-09T08:42:16.710Z,54.21
2022-08-09T08:43:21.043Z,54.32
2022-08-09T08:44:29.396Z,54.47
2022-08-09T08:45:37.801Z,54.42
2022-08-09T08:46:41.476Z,54.54
2022-08-09T08:48:03.794Z,54.58
2022-08-09T08:49:07.725Z,54.76
2022-08-09T08:50:18.278Z,54.47
2022-08-09T08:51:20.609Z,54.15
2022-08-09T08:54:02.999Z,54.42
2022-08-09T08:55:06.553Z,54.43
2022-08-09T08:56:16.843Z,54.71
2022-08-09T08:57:30.554Z,54.64
2022-08-09T08:58:38.799Z,54.37
2022-08-09T08:59:49.254Z,54.51
2022-08-09T09:00:57.414Z,54.43
2022-08-09T09:02:03.063Z,54.71
2022-08-09T09:03:16.306Z,54.31
2022-08-09T09:04:31.982Z,54.18
2022-08-09T09:05:58.289Z,54.05
2022-08-09T09:07:09.819Z,54.04
2022-08-09T09:08:30.848Z,54.13
2022-08-09T09:09:58.692Z,53.79
2022-08-09T09:11:02.623Z,53.54
2022-08-09T09:12:16.512Z,53.54
2022-08-09T09:13:20.531Z,53.63
2022-08-09T09:14:27.971Z,53.28
2022-08-09T09:15:34.801Z,53.16
2022-08-09T09:16:36.525Z,53.64
2022-08-09T09:17:48.707Z,52.96
2022-08-09T09:19:10.764Z,52.74
2022-08-09T09:20:18.182Z,52.73
2022-08-09T09:21:26.174Z,52.88
2022-08-09T09:22:29.419Z,52.77
2022-08-09T09:23:42.242Z,52.43
2022-08-09T09:24:57.836Z,52.47
2022-08-09T09:26:11.853Z,52.35
2022-08-09T09:27:22.109Z,52.16
2022-08-09T09:29:04.052Z,52.14
2022-08-09T09:32:05.954Z,52.16
2022-08-09T09:33:15.472Z,52.42
2022-08-09T09:34:19.302Z,52.23
2022-08-09T09:35:24.173Z,51.70
2022-08-09T09:36:39.378Z,51.53
2022-08-09T09:37:54.844Z,51.69
2022-08-09T09:39:02.296Z,51.73
2022-08-09T09:40:11.528Z,50.98
2022-08-09T09:41:49.901Z,51.09
2022-08-09T09:42:56.883Z,50.88
2022-08-09T09:44:12.513Z,51.02
2022-08-09T09:45:26.540Z,50.85
2022-08-09T09:46:41.948Z,50.52
2022-08-09T09:47:56.597Z,50.29
2022-08-09T09:49:04.739Z,50.15
2022-08-09T09:50:15.778Z,50.49
2022-08-09T09:51:26.026Z,50.46
2022-08-09T09:52:52.235Z,50.41
2022-08-09T09:54:14.243Z,49.96
2022-08-09T09:55:31.205Z,49.66
2022-08-09T09:56:36.575Z,49.86
2022-08-09T09:58:02.377Z,49.96
2022-08-09T09:59:09.437Z,49.84
2022-08-09T10:00:26.419Z,49.65
2022-08-09T10:01:37.527Z,49.35
2022-08-09T10:02:46.664Z,49.43
2022-08-09T10:03:57.488Z,49.55
2022-08-09T10:05:07.333Z,49.62
2022-08-09T10:06:12.475Z,49.38
2022-08-09T10:07:24.084Z,49.11
2022-08-09T10:08:28.289Z,49.37
2022-08-09T10:09:48.743Z,49.08
2022-08-09T10:10:50.748Z,49.08
2022-08-09T10:12:11.593Z,48.46
2022-08-09T10:13:24.786Z,48.18
2022-08-09T10:14:37.457Z,47.72
2022-08-09T10:16:09.009Z,47.91
2022-08-09T10:17:39.110Z,48.27
2022-08-09T10:18:34.841Z,47.80
2022-08-09T10:19:37.741Z,47.65
2022-08-09T10:20:44.696Z,47.68
2022-08-09T10:21:52.313Z,47.55
2022-08-09T10:23:00.470Z,47.19
2022-08-09T10:24:04.943Z,46.88
2022-08-09T10:25:11.680Z,46.25
2022-08-09T10:26:16.823Z,46.38
2022-08-09T10:27:22.202Z,46.56
2022-08-09T10:28:28.683Z,46.63
2022-08-09T10:30:49.261Z,46.60
2022-08-09T10:32:40.242Z,45.53
2022-08-09T10:34:07.820Z,45.81
2022-08-09T10:35:10.180Z,45.42
2022-08-09T10:36:13.280Z,45.59
2022-08-09T10:37:16.388Z,45.42
2022-08-09T10:38:54.601Z,45.83
2022-08-09T10:39:49.419Z,45.75
2022-08-09T10:40:52.082Z,45.59
2022-08-09T10:41:54.723Z,45.85
2022-08-09T10:42:57.055Z,45.53
2022-08-09T10:44:01.999Z,45.99
2022-08-09T10:45:10.583Z,45.51
2022-08-09T10:46:55.608Z,45.89
2022-08-09T10:48:19.483Z,46.08
2022-08-09T10:49:42.754Z,46.11
2022-08-09T10:51:11.887Z,45.96
2022-08-09T10:52:44.940Z,45.98
2022-08-09T10:53:58.171Z,45.62
2022-08-09T10:55:20.296Z,45.97
2022-08-09T10:56:24.522Z,46.10
2022-08-09T10:57:36.317Z,45.76
2022-08-09T10:58:42.858Z,45.41
2022-08-09T10:59:57.444Z,45.76
2022-08-09T11:03:02.734Z,45.27
2022-08-09T11:03:16.506Z,45.31
2022-08-09T11:04:28.052Z,45.31
2022-08-09T11:05:34.555Z,45.10
2022-08-09T11:06:39.518Z,44.73
2022-08-09T11:07:55.778Z,45.30
2022-08-09T11:09:16.137Z,44.73
2022-08-09T11:10:56.452Z,45.07
2022-08-09T11:12:12.723Z,44.54
2022-08-09T11:13:51.063Z,44.84
2022-08-09T11:14:41.693Z,44.51
2022-08-09T11:15:51.241Z,44.77
2022-08-09T11:17:53.474Z,44.39
2022-08-09T11:18:59.963Z,45.08
2022-08-09T11:20:19.697Z,44.43
2022-08-09T11:22:10.262Z,44.94
2022-08-09T11:23:24.300Z,45.23
2022-08-09T11:25:04.603Z,45.21
2022-08-09T11:26:07.232Z,44.70
2022-08-09T11:28:03.891Z,45.08
2022-08-09T11:28:55.840Z,44.46
2022-08-09T11:30:05.179Z,45.01
2022-08-09T11:31:49.091Z,44.75
2022-08-09T11:32:59.739Z,44.95
2022-08-09T11:34:06.602Z,44.74
2022-08-09T11:37:31.226Z,44.23
2022-08-09T11:38:42.779Z,44.72
2022-08-09T11:40:01.633Z,44.58
2022-08-09T11:41:37.576Z,44.33
2022-08-09T11:42:43.431Z,43.63
2022-08-09T11:43:48.669Z,43.91
2022-08-09T11:44:55.120Z,43.74
2022-08-09T11:46:01.239Z,43.30
2022-08-09T11:47:04.009Z,43.76
2022-08-09T11:48:26.188Z,42.94
2022-08-09T11:50:53.641Z,43.58
2022-08-09T11:52:53.916Z,43.17
2022-08-09T11:53:58.029Z,43.38
2022-08-09T11:54:43.412Z,43.16
2022-08-09T11:55:53.471Z,42.87
2022-08-09T11:57:56.449Z,42.81
2022-08-09T11:59:01.420Z,43.05
2022-08-09T12:00:12.874Z,42.96
2022-08-09T12:02:00.922Z,43.01
2022-08-09T12:02:51.185Z,42.88
2022-08-09T12:04:00.709Z,42.53
2022-08-09T12:05:04.316Z,42.25
2022-08-09T12:06:15.778Z,42.83
2022-08-09T12:07:18.410Z,42.22
2022-08-09T12:08:22.103Z,42.58
2022-08-09T12:09:26.988Z,42.57
2022-08-09T12:10:39.833Z,42.70
2022-08-09T12:12:02.059Z,42.91
2022-08-09T12:14:08.352Z,42.67
2022-08-09T12:14:40.996Z,42.70
2022-08-09T12:16:01.197Z,42.14
2022-08-09T12:17:33.984Z,42.49
2022-08-09T12:18:33.681Z,42.20
2022-08-09T12:19:35.531Z,41.81
2022-08-09T12:20:44.885Z,41.83
2022-08-09T12:21:51.518Z,41.32
2022-08-09T12:22:56.806Z,42.04
2022-08-09T12:24:09.054Z,41.31
2022-08-09T12:25:14.999Z,41.63
2022-08-09T12:26:19.727Z,41.16
2022-08-09T12:29:12.312Z,41.39
2022-08-09T12:29:12.576Z,40.92
2022-08-09T12:30:35.676Z,41.24
2022-08-09T12:31:59.050Z,41.52
2022-08-09T12:33:05.217Z,40.95
2022-08-09T12:34:09.286Z,41.47
2022-08-09T12:35:21.765Z,41.38
2022-08-09T12:36:32.279Z,41.13
2022-08-09T12:37:50.336Z,41.31
2022-08-09T12:38:55.579Z,41.57
2022-08-09T12:40:08.207Z,41.35
2022-08-09T12:41:10.195Z,41.53
2022-08-09T12:42:16.182Z,41.55
2022-08-09T12:43:21.609Z,41.53
2022-08-09T12:44:51.954Z,40.95
2022-08-09T12:46:00.113Z,41.17
2022-08-09T12:47:03.532Z,40.83
2022-08-09T12:48:20.044Z,40.70
2022-08-09T12:49:32.957Z,41.11
2022-08-09T12:50:35.708Z,40.64
2022-08-09T12:52:00.557Z,40.00
2022-08-09T12:53:17.402Z,40.23
2022-08-09T12:54:21.822Z,40.19
2022-08-09T12:56:14.330Z,39.83
2022-08-09T12:56:54.073Z,40.29
2022-08-09T12:57:56.501Z,40.27
2022-08-09T12:59:10.354Z,40.29
2022-08-09T13:00:17.690Z,40.30
2022-08-09T13:01:28.191Z,39.78
2022-08-09T13:02:46.334Z,39.81
2022-08-09T13:04:01.775Z,39.98
2022-08-09T13:05:04.855Z,39.96
2022-08-09T13:06:16.005Z,40.37
2022-08-09T13:07:28.614Z,40.37
2022-08-09T13:08:58.516Z,39.36
2022-08-09T13:10:05.170Z,39.42
2022-08-09T13:11:23.144Z,39.79
2022-08-09T13:12:29.176Z,39.89
2022-08-09T13:13:37.962Z,39.20
2022-08-09T13:15:05.034Z,39.44
2022-08-09T13:16:15.603Z,39.57
2022-08-09T13:17:43.956Z,39.93
2022-08-09T13:18:47.004Z,39.48
2022-08-09T13:20:07.411Z,39.37
2022-08-09T13:22:37.765Z,39.84
2022-08-09T13:23:05.385Z,40.03
2022-08-09T13:24:42.534Z,39.87
2022-08-09T13:25:42.846Z,39.83
2022-08-09T13:26:49.935Z,39.60
2022-08-09T13:27:55.896Z,39.17
2022-08-09T13:29:18.490Z,39.25
2022-08-09T13:30:50.253Z,39.41
2022-08-09T13:32:17.382Z,39.59
2022-08-09T13:33:24.709Z,38.96
2022-08-09T13:34:47.915Z,39.39
2022-08-09T13:36:38.130Z,39.47
2022-08-09T13:37:12.256Z,39.01
2022-08-09T13:38:54.655Z,39.42
2022-08-09T13:41:50.813Z,39.27
2022-08-09T13:41:52.559Z,39.60
2022-08-09T13:42:35.174Z,39.29
2022-08-09T13:43:39.872Z,39.63
2022-08-09T13:44:43.144Z,39.54
2022-08-09T13:46:44.647Z,39.46
2022-08-09T13:47:29.403Z,39.51
2022-08-09T13:48:35.055Z,39.04
2022-08-09T13:49:56.009Z,39.10
2022-08-09T13:51:00.238Z,39.11
2022-08-09T13:52:01.971Z,39.20
2022-08-09T13:53:04.596Z,39.07
2022-08-09T13:54:10.234Z,38.71
2022-08-09T13:55:17.575Z,38.78
2022-08-09T13:56:19.986Z,38.30
2022-08-09T13:57:37.132Z,38.55
2022-08-09T13:58:42.828Z,37.77
2022-08-09T13:59:44.569Z,38.16
2022-08-09T14:00:52.385Z,38.03
2022-08-09T14:01:56.221Z,37.90
2022-08-09T14:04:03.809Z,38.13
2022-08-09T14:04:28.356Z,37.92
2022-08-09T14:06:00.525Z,37.68
2022-08-09T14:06:55.398Z,37.65
2022-08-09T14:08:01.417Z,37.64
2022-08-09T14:09:06.465Z,37.47
2022-08-09T14:10:17.193Z,38.04
2022-08-09T14:11:32.064Z,37.65
2022-08-09T14:12:44.066Z,37.56
2022-08-09T14:14:23.074Z,37.55
2022-08-09T14:16:06.618Z,37.56
2022-08-09T14:16:32.841Z,37.96
2022-08-09T14:18:06.439Z,37.66
2022-08-09T14:18:59.399Z,37.71
2022-08-09T14:20:01.793Z,38.55
2022-08-09T14:21:06.971Z,38.50
2022-08-09T14:22:11.681Z,38.49
2022-08-09T14:23:22.793Z,38.42
2022-08-09T14:24:36.257Z,38.77
2022-08-09T14:25:51.622Z,38.83
2022-08-09T14:26:55.135Z,38.34
2022-08-09T14:27:58.717Z,38.66
2022-08-09T14:29:08.112Z,38.17
2022-08-09T14:30:36.763Z,38.31
2022-08-09T14:31:51.901Z,38.17
2022-08-09T14:32:56.469Z,38.00
2022-08-09T14:33:59.470Z,38.42
2022-08-09T14:35:08.151Z,37.95
2022-08-09T14:36:19.769Z,37.76
2022-08-09T14:37:28.093Z,37.91
2022-08-09T14:38:30.340Z,37.71
2022-08-09T14:39:40.489Z,37.23
2022-08-09T14:41:04.231Z,37.33
2022-08-09T14:42:30.776Z,37.75
2022-08-09T14:43:47.579Z,37.26
2022-08-09T14:44:59.631Z,37.92
2022-08-09T14:46:56.604Z,37.75
2022-08-09T14:47:43.018Z,37.58
2022-08-09T14:48:47.402Z,37.44
2022-08-09T14:50:01.991Z,37.33
2022-08-09T14:51:05.581Z,37.24
2022-08-09T14:52:07.328Z,37.48
2022-08-09T14:53:13.679Z,37.66
2022-08-09T14:54:16.718Z,37.81
2022-08-09T14:55:24.938Z,37.76
2022-08-09T14:56:28.498Z,37.42
2022-08-09T14:57:31.874Z,37.53
2022-08-09T14:58:45.309Z,37.21
2022-08-09T14:59:52.417Z,37.10
2022-08-09T15:00:57.688Z,37.74
2022-08-09T15:01:59.524Z,37.04
2022-08-09T15:03:10.624Z,37.30
2022-08-09T15:04:12.544Z,37.15
2022-08-09T15:05:17.138Z,37.02
2022-08-09T15:06:21.124Z,36.72
2022-08-09T15:07:28.333Z,36.86
2022-08-09T15:08:32.489Z,36.71
2022-08-09T15:10:07.615Z,37.03
2022-08-09T15:11:00.964Z,36.78
2022-08-09T15:12:08.234Z,37.33
2022-08-09T15:13:21.562Z,37.19
2022-08-09T15:14:25.027Z,37.30
2022-08-09T15:15:39.167Z,37.78
2022-08-09T15:16:41.759Z,37.67
2022-08-09T15:17:50.065Z,37.89
2022-08-09T15:18:55.490Z,37.52
2022-08-09T15:20:02.783Z,37.46